• Join FlightAware (Why Join?)
  • Login
  • US Flag 
10:11PM EST


 

Airport Tracker/Info


-or-


 

Live Flight TrackerFlight Track Log ✈ RPA3228 ✈ 19-May-2013 ✈ KDCA - KBTV

Flight Track Log - Related Links

Times and Time Zones

All times are in EDT time to prevent confusion due to time zone crossing. See the RPA3228 flight status page for this flight to view local times or setup timezone preferences in your user account.

Time Position Orientation Groundspeed Altitude Reporting Facility
EDT Latitude Longitude Course Direction KTS MPH feet Rate Location/Type
10:24AM 38.8833 -77.0667 61° Northeast 162 186 1,700  Level Potomac TRACON
10:25AM 38.9167 -77.1000 322° Northwest 230 265 3,100 2,220 Climbing Potomac TRACON
10:26AM 38.9648 -76.6888 67° East  Level FlightAware Approximate
10:26AM 38.9833 -77.1667 322° Northwest 285 328 6,000  Level Potomac TRACON
10:27AM 39.0121 -76.5757 57° Northeast  Level FlightAware Approximate
10:27AM 39.0333 -77.0833 52° Northeast 298 343 9,200  Level Potomac TRACON
10:28AM 39.0560 -76.4599 63° Northeast  Level FlightAware Approximate
10:28AM 39.0539 -76.9256 80° East 323 372 13,200  Level Washington Center
10:29AM 39.1039 -76.3465 61° Northeast  Level FlightAware Approximate
10:29AM 39.0678 -76.8161 81° East 323 372 15,700  Level Washington Center
10:30AM 39.0833 -76.6986 80° East 323 372 18,000 2,040 Climbing Washington Center
10:31AM 39.1011 -76.5758 79° East 323 372 19,900 1,920 Climbing Washington Center
10:32AM 39.1167 -76.4503 81° East 342 394 21,900 1,440 Climbing Washington Center
10:33AM 39.1364 -76.3114 80° East 367 422 22,900 540 Climbing Washington Center
10:34AM 39.1558 -76.1725 80° East 384 442 23,000  Climbing Washington Center
10:35AM 39.1731 -76.0442 80° East 392 451 23,000 240 Level Washington Center
10:36AM 39.1942 -75.9022 79° East 398 458 23,500 1,080 Climbing Washington Center
10:37AM 39.2653 -75.7900 51° Northeast 388 447 25,200 1,440 Climbing Washington Center
10:38AM 39.3447 -75.6828 46° Northeast 391 450 26,500 1,560 Climbing Washington Center
10:39AM 39.4281 -75.5781 44° Northeast 402 463 28,300 1,560 Climbing Washington Center
10:40AM 39.5092 -75.4706 46° Northeast 408 470 29,600 1,320 Climbing Washington Center
10:41AM 39.5903 -75.3653 45° Northeast 408 470 31,000 660 Climbing Washington Center
10:42AM 39.6694 -75.2600 46° Northeast 408 470 31,000  Level Washington Center
10:43AM 39.7439 -75.1544 47° Northeast 403 464 31,000  Level Washington Center
10:44AM 39.8308 -75.0267 48° Northeast 420 483 31,000  Level Washington Center
10:46AM 39.9925 -74.8081 46° Northeast 422 486 31,000 -60 Level New York Center
10:47AM 40.0711 -74.6986 47° Northeast 416 479 30,900  Descending New York Center
10:48AM 40.1731 -74.6419 23° Northeast 399 459 31,000  Climbing New York Center
10:49AM 40.2742 -74.6067 15° North 379 436 31,000  Level New York Center
10:50AM 40.3794 -74.5744 13° North 379 436 31,000  Level New York Center
10:52AM 40.5850 -74.5114 13° North 388 447 31,000  Level Boston Center
10:53AM 40.6856 -74.4736 16° North 388 447 31,000  Level Boston Center
10:54AM 40.7714 -74.4517 11° North 388 447 31,000  Level Boston Center
10:55AM 40.8994 -74.4061 15° North 388 447 31,000  Level Boston Center
10:56AM 41.0039 -74.3819 10° North 388 447 31,000  Level Boston Center
10:57AM 41.1108 -74.3464 14° North 388 447 31,000  Level Boston Center
10:58AM 41.2136 -74.3136 13° North 382 440 31,000  Level Boston Center
10:59AM 41.3142 -74.2753 16° North 377 434 31,000  Level Boston Center
11:00AM 41.4189 -74.2422 13° North 377 434 31,000  Level Boston Center
11:01AM 41.5236 -74.2092 13° North 377 434 31,000  Level Boston Center
11:02AM 41.6328 -74.1733 14° North 383 441 31,000  Level Boston Center
11:03AM 41.7394 -74.1344 15° North 388 447 31,000  Level Boston Center
11:04AM 41.8233 -74.1117 11° North 372 428 31,000  Level Boston Center
11:05AM 41.9281 -74.0753 14° North 366 421 31,000  Level Boston Center
11:06AM 42.0097 -74.0467 15° North 371 427 31,000  Level Boston Center
11:07AM 42.1103 -74.0100 15° North 371 427 31,000 -120 Level Boston Center
11:08AM 42.2317 -73.9683 14° North 376 433 30,800 -420 Descending Boston Center
11:09AM 42.3342 -73.9342 14° North 376 433 30,200 -420 Descending Boston Center
11:10AM 42.4389 -73.8944 16° North 376 433 30,000 -120 Descending Boston Center
11:11AM 42.5394 -73.8603 14° North 376 433 30,000  Level Boston Center
11:12AM 42.6381 -73.8231 16° North 376 433 30,000  Level Boston Center
11:13AM 42.7425 -73.7886 14° North 376 433 30,000  Level Boston Center
11:14AM 42.8431 -73.7511 15° North 376 433 30,000 -480 Level Boston Center
11:15AM 42.9456 -73.7136 15° North 376 433 29,100 -1,500 Descending Boston Center
11:16AM 43.0503 -73.6761 15° North 376 433 27,100 -2,160 Descending Boston Center
11:17AM 43.1589 -73.6328 16° North 376 433 24,800 -2,100 Descending Boston Center
11:18AM 43.2553 -73.6003 14° North 363 418 22,900 -1,920 Descending Boston Center
11:19AM 43.3494 -73.5650 15° North 358 412 21,000 -1,860 Descending Boston Center
11:20AM 43.4456 -73.5325 14° North 358 412 19,200 -1,740 Descending Boston Center
11:21AM 43.5397 -73.4969 15° North 353 406 17,600 -1,740 Descending Boston Center
11:22AM 43.6317 -73.4642 14° North 348 400 15,800 -1,680 Descending Boston Center
11:23AM 43.7111 -73.4397 13° North 338 389 14,300 -1,620 Descending Boston Center
11:24AM 43.7989 -73.4094 14° North 325 374 12,600 -1,620 Descending Boston Center
11:25AM 43.8819 -73.4339 348° North 304 350 11,100 -1,920 Descending Boston Center
11:26AM 43.9628 -73.4814 337° Northwest 287 330 8,800 -2,040 Descending Boston Center
11:27AM 44.0417 -73.5028 349° North 294 338 7,100 -1,440 Descending Boston Center
11:28AM 44.1211 -73.4986 North 282 325 6,000 -600 Descending Boston Center
11:29AM 44.2044 -73.4856 North 290 334 6,000 -60 Level Boston Center
11:30AM 44.2839 -73.4753 North 290 334 5,900 -840 Descending Boston Center
11:31AM 44.3592 -73.4303 23° Northeast 290 334 4,400 -960 Descending Boston Center
11:32AM 44.4261 -73.3936 21° North 279 321 4,000 -720 Descending Boston Center
11:33AM 44.4806 -73.3478 31° Northeast 239 275 3,000 -960 Descending Boston Center
11:34AM 44.5228 -73.3019 38° Northeast 204 235 2,000 -840 Descending Boston Center